createdAt,value
2019-01-17T00:00:27.930Z,4.90
2019-01-17T00:03:20.875Z,4.90
2019-01-17T00:06:07.912Z,4.90
2019-01-17T00:09:11.524Z,4.90
2019-01-17T00:12:11.762Z,4.90
2019-01-17T00:15:03.083Z,4.90
2019-01-17T00:17:57.049Z,4.90
2019-01-17T00:20:56.758Z,4.90
2019-01-17T00:23:43.583Z,4.80
2019-01-17T00:26:30.826Z,4.80
2019-01-17T00:29:17.629Z,4.80
2019-01-17T00:32:04.774Z,4.80
2019-01-17T00:34:43.748Z,4.80
2019-01-17T00:37:28.186Z,4.80
2019-01-17T00:40:15.259Z,4.80
2019-01-17T00:43:05.786Z,4.80
2019-01-17T00:45:53.928Z,4.80
2019-01-17T00:48:40.634Z,4.80
2019-01-17T00:51:37.929Z,4.70
2019-01-17T00:54:24.662Z,4.60
2019-01-17T00:57:12.834Z,4.60
2019-01-17T01:00:06.920Z,4.60
2019-01-17T01:02:55.082Z,4.60
2019-01-17T01:05:46.228Z,4.60
2019-01-17T01:08:33.099Z,4.60
2019-01-17T01:11:27.336Z,4.60
2019-01-17T01:14:08.080Z,4.50
2019-01-17T01:17:03.863Z,4.60
2019-01-17T01:19:46.696Z,4.60
2019-01-17T01:22:43.984Z,4.60
2019-01-17T01:25:31.183Z,4.60
2019-01-17T01:28:22.338Z,4.60
2019-01-17T01:31:10.478Z,4.60
2019-01-17T01:34:01.083Z,4.60
2019-01-17T01:36:58.269Z,4.60
2019-01-17T01:39:45.242Z,4.60
2019-01-17T01:42:20.492Z,4.60
2019-01-17T01:45:14.585Z,4.60
2019-01-17T01:48:11.957Z,4.60
2019-01-17T01:50:58.833Z,4.60
2019-01-17T01:53:28.048Z,4.60
2019-01-17T01:55:57.169Z,4.60
2019-01-17T01:58:26.260Z,4.60
2019-01-17T02:00:55.343Z,4.60
2019-01-17T02:03:24.454Z,4.60
2019-01-17T02:05:53.583Z,4.70
2019-01-17T02:08:22.687Z,4.60
2019-01-17T02:10:51.777Z,4.70
2019-01-17T02:13:20.939Z,4.60
2019-01-17T02:15:50.104Z,4.60
2019-01-17T02:18:19.211Z,4.60
2019-01-17T02:20:48.314Z,4.70
2019-01-17T02:23:18.217Z,4.60
2019-01-17T02:25:47.371Z,4.70
2019-01-17T02:28:16.464Z,4.70
2019-01-17T02:30:45.535Z,4.70
2019-01-17T02:33:14.639Z,4.70
2019-01-17T02:35:43.790Z,4.70
2019-01-17T02:38:14.691Z,4.70
2019-01-17T02:40:43.795Z,4.70
2019-01-17T02:43:12.895Z,4.70
2019-01-17T02:45:42.007Z,4.70
2019-01-17T02:48:11.093Z,4.70
2019-01-17T02:50:40.175Z,4.70
2019-01-17T02:53:09.831Z,4.70
2019-01-17T02:55:38.893Z,4.70
2019-01-17T02:58:07.988Z,4.70
2019-01-17T03:00:37.069Z,4.70
2019-01-17T03:03:06.143Z,4.70
2019-01-17T03:05:35.275Z,4.70
2019-01-17T03:08:04.470Z,4.70
2019-01-17T03:10:33.549Z,4.70
2019-01-17T03:13:03.242Z,4.70
2019-01-17T03:15:32.333Z,4.70
2019-01-17T03:18:01.437Z,4.70
2019-01-17T03:20:30.527Z,4.70
2019-01-17T03:22:59.636Z,4.80
2019-01-17T03:25:28.745Z,4.80
2019-01-17T03:27:57.853Z,4.80
2019-01-17T03:30:27.022Z,4.80
2019-01-17T03:32:56.806Z,4.80
2019-01-17T03:35:25.929Z,4.80
2019-01-17T03:37:55.101Z,4.80
2019-01-17T03:40:24.201Z,4.80
2019-01-17T03:42:53.305Z,4.90
2019-01-17T03:45:22.410Z,4.90
2019-01-17T03:47:51.500Z,4.90
2019-01-17T03:50:21.141Z,4.80
2019-01-17T03:52:50.251Z,4.80
2019-01-17T03:55:22.127Z,4.80
2019-01-17T03:57:51.305Z,4.80
2019-01-17T04:00:21.114Z,4.80
2019-01-17T04:02:50.271Z,4.80
2019-01-17T04:05:19.908Z,4.80
2019-01-17T04:07:49.007Z,4.90
2019-01-17T04:10:18.083Z,4.90
2019-01-17T04:12:47.173Z,4.90
2019-01-17T04:15:16.357Z,4.90
2019-01-17T04:17:45.460Z,4.90
2019-01-17T04:20:16.746Z,4.90
2019-01-17T04:22:45.952Z,5.00
2019-01-17T04:25:15.073Z,4.90
2019-01-17T04:27:44.181Z,5.00
2019-01-17T04:30:15.725Z,5.00
2019-01-17T04:32:44.829Z,5.00
2019-01-17T04:35:13.926Z,5.00
2019-01-17T04:37:43.020Z,5.00
2019-01-17T04:40:12.647Z,5.00
2019-01-17T04:42:41.773Z,5.10
2019-01-17T04:45:12.157Z,5.10
2019-01-17T04:47:41.237Z,5.10
2019-01-17T04:50:11.593Z,5.10
2019-01-17T04:52:40.695Z,5.10
2019-01-17T04:55:10.714Z,5.20
2019-01-17T04:57:39.807Z,5.20
2019-01-17T05:00:12.711Z,5.20
2019-01-17T05:02:41.819Z,5.20
2019-01-17T05:05:11.659Z,5.20
2019-01-17T05:07:40.739Z,5.30
2019-01-17T05:10:10.755Z,5.30
2019-01-17T05:12:39.844Z,5.30
2019-01-17T05:15:09.321Z,5.30
2019-01-17T05:17:38.408Z,5.30
2019-01-17T05:20:10.315Z,5.30
2019-01-17T05:22:39.418Z,5.30
2019-01-17T05:25:12.773Z,5.30
2019-01-17T05:27:39.416Z,5.30
2019-01-17T05:30:11.457Z,5.30
2019-01-17T05:32:40.621Z,5.30
2019-01-17T05:35:10.425Z,5.30
2019-01-17T05:37:39.527Z,5.30
2019-01-17T05:40:11.435Z,5.30
2019-01-17T05:42:40.526Z,5.30
2019-01-17T05:45:09.630Z,5.30
2019-01-17T05:47:39.922Z,5.30
2019-01-17T05:50:10.671Z,5.30
2019-01-17T05:52:39.777Z,5.30
2019-01-17T05:55:08.898Z,5.30
2019-01-17T05:57:38.008Z,5.30
2019-01-17T06:00:11.097Z,5.30
2019-01-17T06:02:40.213Z,5.30
2019-01-17T06:05:09.616Z,5.30
2019-01-17T06:07:38.718Z,5.30
2019-01-17T06:10:09.548Z,5.30
2019-01-17T06:12:38.655Z,5.40
2019-01-17T06:15:08.247Z,5.40
2019-01-17T06:17:37.354Z,5.30
2019-01-17T06:20:07.983Z,5.30
2019-01-17T06:22:37.109Z,5.30
2019-01-17T06:25:06.303Z,5.40
2019-01-17T06:27:35.405Z,5.40
2019-01-17T06:30:05.857Z,5.40
2019-01-17T06:32:34.970Z,5.40
2019-01-17T06:35:04.270Z,5.40
2019-01-17T06:37:33.631Z,5.30
2019-01-17T06:40:02.723Z,5.40
2019-01-17T06:42:31.817Z,5.40
2019-01-17T06:45:00.964Z,5.40
2019-01-17T06:47:30.084Z,5.40
2019-01-17T06:49:59.190Z,5.40
2019-01-17T06:52:28.331Z,5.40
2019-01-17T06:54:57.449Z,5.40
2019-01-17T06:57:26.562Z,5.40
2019-01-17T06:59:55.819Z,5.40
2019-01-17T07:02:24.947Z,5.40
2019-01-17T07:04:54.037Z,5.50
2019-01-17T07:07:23.164Z,5.50
2019-01-17T07:09:52.256Z,5.40
2019-01-17T07:12:21.358Z,5.40
2019-01-17T07:14:50.520Z,5.50
2019-01-17T07:17:19.608Z,5.50
2019-01-17T07:19:48.704Z,5.50
2019-01-17T07:22:17.783Z,5.50
2019-01-17T07:24:46.907Z,5.50
2019-01-17T07:27:16.020Z,5.50
2019-01-17T07:29:45.151Z,5.50
2019-01-17T07:32:14.252Z,5.50
2019-01-17T07:34:43.392Z,5.50
2019-01-17T07:37:12.480Z,5.50
2019-01-17T07:39:41.560Z,5.50
2019-01-17T07:42:10.646Z,5.50
2019-01-17T07:44:39.738Z,5.50
2019-01-17T07:47:08.850Z,5.50
2019-01-17T07:49:37.962Z,5.50
2019-01-17T07:52:07.180Z,5.50
2019-01-17T07:54:36.274Z,5.50
2019-01-17T07:57:05.370Z,5.50
2019-01-17T07:59:34.446Z,5.50
2019-01-17T08:02:03.529Z,5.50
2019-01-17T08:04:32.620Z,5.50
2019-01-17T08:07:01.804Z,5.50
2019-01-17T08:09:30.898Z,5.50
2019-01-17T08:12:05.041Z,5.50
2019-01-17T08:14:30.778Z,5.40
2019-01-17T08:16:59.880Z,5.40
2019-01-17T08:19:28.965Z,5.50
2019-01-17T08:21:58.068Z,5.50
2019-01-17T08:24:27.170Z,5.50
2019-01-17T08:26:56.302Z,5.50
2019-01-17T08:29:25.392Z,5.50
2019-01-17T08:31:54.462Z,5.50
2019-01-17T08:34:28.233Z,5.50
2019-01-17T08:36:54.393Z,5.40
2019-01-17T08:39:23.478Z,5.40
2019-01-17T08:41:52.558Z,5.40
2019-01-17T08:44:21.648Z,5.40
2019-01-17T08:46:50.829Z,5.30
2019-01-17T08:49:20.022Z,5.20
2019-01-17T08:51:49.161Z,5.10
2019-01-17T08:54:18.263Z,5.10
2019-01-17T08:56:47.378Z,5.10
2019-01-17T08:59:16.461Z,5.20
2019-01-17T09:01:45.571Z,5.20
2019-01-17T09:04:14.724Z,5.30
2019-01-17T09:06:43.844Z,5.40
2019-01-17T09:09:12.942Z,5.50
2019-01-17T09:11:42.119Z,5.50
2019-01-17T09:14:11.232Z,5.60
2019-01-17T09:16:40.329Z,5.70
2019-01-17T09:19:09.438Z,5.70
2019-01-17T09:21:38.542Z,5.80
2019-01-17T09:24:07.660Z,5.90
2019-01-17T09:26:36.768Z,5.90
2019-01-17T09:29:05.888Z,6.00
2019-01-17T09:31:35.012Z,6.00
2019-01-17T09:34:04.294Z,5.90
2019-01-17T09:36:33.395Z,6.00
2019-01-17T09:39:02.461Z,6.00
2019-01-17T09:41:31.550Z,6.00
2019-01-17T09:44:00.643Z,6.00
2019-01-17T09:46:29.754Z,6.00
2019-01-17T09:48:58.830Z,6.00
2019-01-17T09:51:27.919Z,6.10
2019-01-17T09:53:57.679Z,6.10
2019-01-17T09:56:26.779Z,6.00
2019-01-17T09:58:55.894Z,6.10
2019-01-17T10:01:25.002Z,6.20
2019-01-17T10:03:54.110Z,6.30
2019-01-17T10:06:23.192Z,6.30
2019-01-17T10:08:52.302Z,6.30
2019-01-17T10:11:21.380Z,6.30
2019-01-17T10:13:50.578Z,6.30
2019-01-17T10:16:31.907Z,6.20
2019-01-17T10:19:35.518Z,6.20
2019-01-17T10:22:54.201Z,6.10
2019-01-17T10:26:08.273Z,6.00
2019-01-17T10:29:12.289Z,6.00
2019-01-17T10:32:28.261Z,6.00
2019-01-17T10:35:30.553Z,6.00
2019-01-17T10:38:37.270Z,5.90
2019-01-17T10:41:43.457Z,5.90
2019-01-17T10:44:25.222Z,5.80
2019-01-17T10:47:43.837Z,5.80
2019-01-17T10:50:54.363Z,5.80
2019-01-17T10:54:13.511Z,5.90
2019-01-17T10:57:28.361Z,6.00
2019-01-17T11:00:25.995Z,6.00
2019-01-17T11:04:03.617Z,6.00
2019-01-17T11:07:11.393Z,6.00
2019-01-17T11:10:39.961Z,6.00
2019-01-17T11:13:50.248Z,6.10
2019-01-17T11:17:01.200Z,6.20
2019-01-17T11:20:01.239Z,6.30
2019-01-17T11:22:49.392Z,6.30
2019-01-17T11:25:53.438Z,6.30
2019-01-17T11:28:38.843Z,6.30
2019-01-17T11:31:58.159Z,6.30
2019-01-17T11:34:54.003Z,6.20
2019-01-17T11:37:58.217Z,6.10
2019-01-17T11:41:05.555Z,6.10
2019-01-17T11:44:00.894Z,6.00
2019-01-17T11:47:08.561Z,5.90
2019-01-17T11:50:14.247Z,5.60
2019-01-17T11:53:05.843Z,5.40
2019-01-17T11:55:54.246Z,5.20
2019-01-17T11:59:00.203Z,5.00
2019-01-17T12:02:02.348Z,5.00
2019-01-17T12:04:33.980Z,5.00
2019-01-17T12:07:14.171Z,5.00
2019-01-17T12:09:43.267Z,5.00
2019-01-17T12:12:15.676Z,5.00
2019-01-17T12:14:44.941Z,5.00
2019-01-17T12:17:14.036Z,5.00
2019-01-17T12:19:43.157Z,4.90
2019-01-17T12:22:12.271Z,4.80
2019-01-17T12:24:41.400Z,4.70
2019-01-17T12:27:10.497Z,4.70
2019-01-17T12:29:39.617Z,4.70
2019-01-17T12:32:08.693Z,4.80
2019-01-17T12:34:37.749Z,4.90
2019-01-17T12:37:06.852Z,5.00
2019-01-17T12:39:35.952Z,5.10
2019-01-17T12:42:05.135Z,5.30
2019-01-17T12:44:34.225Z,5.40
2019-01-17T12:47:03.405Z,5.40
2019-01-17T12:49:32.518Z,5.40
2019-01-17T12:52:01.658Z,5.30
2019-01-17T12:54:30.729Z,5.40
2019-01-17T12:56:59.833Z,5.40
2019-01-17T12:59:28.941Z,5.40
2019-01-17T13:01:58.522Z,5.40
2019-01-17T13:04:27.641Z,5.60
2019-01-17T13:06:56.736Z,5.70
2019-01-17T13:09:25.861Z,5.80
2019-01-17T13:11:54.955Z,5.80
2019-01-17T13:14:24.087Z,5.70
2019-01-17T13:16:53.173Z,5.80
2019-01-17T13:19:22.259Z,5.70
2019-01-17T13:21:51.364Z,5.80
2019-01-17T13:24:20.460Z,5.80
2019-01-17T13:26:49.575Z,5.80
2019-01-17T13:29:18.662Z,5.80
2019-01-17T13:31:47.768Z,5.70
2019-01-17T13:34:16.881Z,5.70
2019-01-17T13:36:45.986Z,5.70
2019-01-17T13:39:15.097Z,5.60
2019-01-17T13:41:44.209Z,5.60
2019-01-17T13:44:13.341Z,5.60
2019-01-17T13:46:42.457Z,5.60
2019-01-17T13:49:11.562Z,5.70
2019-01-17T13:51:40.737Z,5.70
2019-01-17T13:54:09.878Z,5.80
2019-01-17T13:56:38.964Z,5.80
2019-01-17T13:59:08.076Z,5.80
2019-01-17T14:01:37.167Z,5.70
2019-01-17T14:04:06.260Z,5.60
2019-01-17T14:06:35.368Z,5.60
2019-01-17T14:09:08.125Z,5.50
2019-01-17T14:11:37.262Z,5.50
2019-01-17T14:14:06.445Z,5.50
2019-01-17T14:16:35.541Z,5.50
2019-01-17T14:19:04.720Z,5.40
2019-01-17T14:21:33.846Z,5.30
2019-01-17T14:24:02.931Z,5.20
2019-01-17T14:26:32.011Z,5.20
2019-01-17T14:29:01.123Z,5.10
2019-01-17T14:31:30.208Z,5.00
2019-01-17T14:33:59.332Z,5.00
2019-01-17T14:36:28.450Z,4.90
2019-01-17T14:38:57.612Z,4.90
2019-01-17T14:41:26.700Z,4.90
2019-01-17T14:43:55.785Z,4.70
2019-01-17T14:46:24.893Z,4.50
2019-01-17T14:48:53.989Z,4.30
2019-01-17T14:51:23.083Z,4.20
2019-01-17T14:53:52.203Z,4.10
2019-01-17T14:56:21.307Z,4.10
2019-01-17T14:58:50.416Z,4.20
2019-01-17T15:01:19.642Z,4.20
2019-01-17T15:03:48.843Z,4.30
2019-01-17T15:06:17.908Z,4.30
2019-01-17T15:08:47.049Z,4.30
2019-01-17T15:11:16.197Z,4.40
2019-01-17T15:13:45.373Z,4.40
2019-01-17T15:16:14.508Z,4.40
2019-01-17T15:18:43.596Z,4.40
2019-01-17T15:21:12.694Z,4.40
2019-01-17T15:23:41.790Z,4.50
2019-01-17T15:26:10.896Z,4.50
2019-01-17T15:28:39.977Z,4.40
2019-01-17T15:31:09.087Z,4.30
2019-01-17T15:33:38.237Z,4.30
2019-01-17T15:36:07.335Z,4.10
2019-01-17T15:38:36.457Z,3.90
2019-01-17T15:41:05.580Z,3.90
2019-01-17T15:43:34.718Z,3.90
2019-01-17T15:46:03.869Z,3.90
2019-01-17T15:48:32.963Z,3.80
2019-01-17T15:51:02.082Z,3.70
2019-01-17T15:53:31.289Z,3.60
2019-01-17T15:56:00.384Z,3.60
2019-01-17T15:58:29.478Z,3.50
2019-01-17T16:00:58.610Z,3.60
2019-01-17T16:03:27.911Z,3.60
2019-01-17T16:05:57.076Z,3.70
2019-01-17T16:08:26.386Z,3.70
2019-01-17T16:10:55.556Z,3.70
2019-01-17T16:13:24.828Z,3.70
2019-01-17T16:15:54.036Z,3.60
2019-01-17T16:18:23.210Z,3.50
2019-01-17T16:20:52.322Z,3.40
2019-01-17T16:23:21.572Z,3.30
2019-01-17T16:25:50.864Z,3.20
2019-01-17T16:28:20.040Z,3.20
2019-01-17T16:30:49.164Z,3.20
2019-01-17T16:33:18.354Z,3.20
2019-01-17T16:35:47.576Z,3.20
2019-01-17T16:38:16.767Z,3.20
2019-01-17T16:40:45.900Z,3.30
2019-01-17T16:43:15.030Z,3.40
2019-01-17T16:45:44.153Z,3.40
2019-01-17T16:48:13.293Z,3.50
2019-01-17T16:50:42.408Z,3.50
2019-01-17T16:53:11.634Z,3.60
2019-01-17T16:55:40.776Z,3.60
2019-01-17T16:58:09.940Z,3.60
2019-01-17T17:00:41.696Z,3.40
2019-01-17T17:03:10.866Z,3.20
2019-01-17T17:05:40.122Z,3.00
2019-01-17T17:08:09.300Z,2.80
2019-01-17T17:10:38.453Z,2.70
2019-01-17T17:13:07.618Z,2.70
2019-01-17T17:15:36.772Z,2.60
2019-01-17T17:18:05.926Z,2.40
2019-01-17T17:20:35.116Z,2.30
2019-01-17T17:23:04.337Z,2.30
2019-01-17T17:25:33.617Z,2.20
2019-01-17T17:28:02.787Z,2.10
2019-01-17T17:30:32.043Z,2.10
2019-01-17T17:33:01.178Z,2.10
2019-01-17T17:35:30.344Z,2.20
2019-01-17T17:37:59.506Z,2.20
2019-01-17T17:40:32.135Z,2.20
2019-01-17T17:43:01.288Z,2.20
2019-01-17T17:45:30.792Z,2.20
2019-01-17T17:48:01.874Z,2.20
2019-01-17T17:50:31.015Z,2.20
2019-01-17T17:53:00.826Z,2.20
2019-01-17T17:55:29.996Z,2.20
2019-01-17T17:58:02.260Z,2.20
2019-01-17T18:00:42.768Z,2.20
2019-01-17T18:03:12.816Z,2.10
2019-01-17T18:05:42.052Z,2.10
2019-01-17T18:08:12.544Z,2.10
2019-01-17T18:10:41.814Z,2.10
2019-01-17T18:13:11.148Z,2.10
2019-01-17T18:15:42.328Z,2.10
2019-01-17T18:18:11.572Z,2.20
2019-01-17T18:20:40.734Z,2.20
2019-01-17T18:23:09.991Z,2.20
2019-01-17T18:25:39.462Z,2.20
2019-01-17T18:28:09.066Z,2.20
2019-01-17T18:30:38.468Z,2.20
2019-01-17T18:33:10.028Z,2.20
2019-01-17T18:35:39.198Z,2.10
2019-01-17T18:38:08.865Z,2.20
2019-01-17T18:40:38.141Z,2.20
2019-01-17T18:43:07.544Z,2.20
2019-01-17T18:45:36.856Z,2.20
2019-01-17T18:48:06.145Z,2.20
2019-01-17T18:50:35.652Z,2.20
2019-01-17T18:53:04.957Z,2.20
2019-01-17T18:55:34.246Z,2.10
2019-01-17T18:58:03.608Z,2.20
2019-01-17T19:00:33.336Z,2.20
2019-01-17T19:03:02.629Z,2.10
2019-01-17T19:05:32.080Z,2.50
2019-01-17T19:08:01.387Z,2.00
2019-01-17T19:10:31.873Z,2.00
2019-01-17T19:13:01.208Z,2.00
2019-01-17T19:15:32.558Z,2.00
2019-01-17T19:18:02.001Z,2.00
2019-01-17T19:20:31.334Z,1.90
2019-01-17T19:23:00.727Z,1.80
2019-01-17T19:25:30.034Z,1.70
2019-01-17T19:27:59.407Z,1.60
2019-01-17T19:30:30.191Z,1.50
2019-01-17T19:32:59.578Z,1.50
2019-01-17T19:35:29.264Z,1.40
2019-01-17T19:37:59.413Z,1.30
2019-01-17T19:40:31.458Z,1.20
2019-01-17T19:43:00.735Z,1.20
2019-01-17T19:45:32.844Z,1.10
2019-01-17T19:48:02.535Z,1.10
2019-01-17T19:50:40.773Z,1.00
2019-01-17T19:53:10.797Z,1.00
2019-01-17T19:55:40.110Z,0.90
2019-01-17T19:58:12.450Z,0.90
2019-01-17T20:00:45.177Z,0.80
2019-01-17T20:03:15.585Z,0.70
2019-01-17T20:05:45.243Z,0.70
2019-01-17T20:08:16.765Z,0.70
2019-01-17T20:10:50.090Z,0.70
2019-01-17T20:13:19.482Z,0.70
2019-01-17T20:15:50.395Z,0.80
2019-01-17T20:18:21.835Z,0.80
2019-01-17T20:20:51.193Z,0.80
2019-01-17T20:23:21.145Z,0.80
2019-01-17T20:25:55.051Z,0.80
2019-01-17T20:28:24.365Z,0.70
2019-01-17T20:30:53.723Z,0.70
2019-01-17T20:33:23.031Z,0.70
2019-01-17T20:35:52.567Z,0.60
2019-01-17T20:38:22.521Z,0.60
2019-01-17T20:40:58.150Z,0.50
2019-01-17T20:43:25.943Z,0.50
2019-01-17T20:45:56.609Z,0.50
2019-01-17T20:48:26.233Z,0.50
2019-01-17T20:50:55.995Z,0.40
2019-01-17T20:53:25.551Z,0.40
2019-01-17T20:55:55.264Z,0.40
2019-01-17T20:58:29.795Z,0.40
2019-01-17T21:01:26.400Z,0.50
2019-01-17T21:03:56.913Z,0.50
2019-01-17T21:06:26.570Z,0.60
2019-01-17T21:08:56.245Z,0.60
2019-01-17T21:11:25.829Z,0.70
2019-01-17T21:13:56.269Z,0.90
2019-01-17T21:16:26.485Z,0.90
2019-01-17T21:18:55.781Z,1.00
2019-01-17T21:21:25.073Z,1.10
2019-01-17T21:23:54.607Z,1.10
2019-01-17T21:26:23.901Z,1.10
2019-01-17T21:28:54.342Z,1.00
2019-01-17T21:31:23.651Z,0.90
2019-01-17T21:33:52.887Z,0.80
2019-01-17T21:36:22.201Z,0.80
2019-01-17T21:38:53.019Z,0.80
2019-01-17T21:41:23.103Z,0.70
2019-01-17T21:43:52.363Z,0.70
2019-01-17T21:46:21.585Z,0.60
2019-01-17T21:48:50.913Z,0.60
2019-01-17T21:51:20.167Z,0.70
2019-01-17T21:53:49.408Z,0.60
2019-01-17T21:56:18.859Z,0.70
2019-01-17T21:58:48.005Z,0.70
2019-01-17T22:01:17.159Z,0.80
2019-01-17T22:03:46.759Z,0.90
2019-01-17T22:06:15.986Z,0.90
2019-01-17T22:08:45.199Z,0.80
2019-01-17T22:11:14.667Z,0.70
2019-01-17T22:13:43.925Z,0.70
2019-01-17T22:16:13.089Z,0.70
2019-01-17T22:18:42.406Z,0.70
2019-01-17T22:21:11.573Z,0.60
2019-01-17T22:23:40.692Z,0.60
2019-01-17T22:26:09.817Z,0.50
2019-01-17T22:28:38.951Z,0.60
2019-01-17T22:31:08.051Z,0.50
2019-01-17T22:33:37.185Z,0.40
2019-01-17T22:36:06.291Z,0.40
2019-01-17T22:38:35.410Z,0.40
2019-01-17T22:41:04.568Z,0.30
2019-01-17T22:43:33.691Z,0.40
2019-01-17T22:46:02.793Z,0.40
2019-01-17T22:48:31.979Z,0.40
2019-01-17T22:51:01.111Z,0.30
2019-01-17T22:53:30.197Z,0.30
2019-01-17T22:55:59.296Z,0.20
2019-01-17T22:58:28.392Z,0.10
2019-01-17T23:01:15.928Z,0.10
2019-01-17T23:03:46.602Z,0.00
2019-01-17T23:06:15.701Z,0.00
2019-01-17T23:08:44.817Z,0.00
2019-01-17T23:11:13.941Z,0.10
2019-01-17T23:13:43.040Z,0.10
2019-01-17T23:16:12.179Z,0.10
2019-01-17T23:18:41.264Z,0.20
2019-01-17T23:21:10.345Z,0.10
2019-01-17T23:23:39.442Z,0.10
2019-01-17T23:26:08.558Z,0.10
2019-01-17T23:28:37.683Z,0.10
2019-01-17T23:31:06.750Z,0.10
2019-01-17T23:33:35.849Z,0.10
2019-01-17T23:36:05.092Z,0.10
2019-01-17T23:38:34.198Z,0.10
2019-01-17T23:41:03.301Z,0.10
2019-01-17T23:43:32.383Z,0.20
2019-01-17T23:46:01.478Z,0.30
2019-01-17T23:48:30.655Z,0.30
2019-01-17T23:50:59.793Z,0.30
2019-01-17T23:53:28.889Z,0.20
2019-01-17T23:55:58.026Z,0.20
2019-01-17T23:58:27.128Z,0.20
